sensor_id;sensor_type;location;lat;lon;timestamp;P1;durP1;ratioP1;P2;durP2;ratioP2
14171;SDS011;7165;52.388;4.928;2024-01-30T08:29:46;15.55;;;14.10;;
14171;SDS011;7165;52.388;4.928;2024-01-30T08:32:13;15.38;;;13.65;;
14171;SDS011;7165;52.388;4.928;2024-01-30T08:34:39;15.93;;;14.55;;
14171;SDS011;7165;52.388;4.928;2024-01-30T08:37:06;15.43;;;13.82;;
14171;SDS011;7165;52.388;4.928;2024-01-30T08:39:34;15.50;;;14.00;;
14171;SDS011;7165;52.388;4.928;2024-01-30T08:42:01;17.17;;;14.25;;
14171;SDS011;7165;52.388;4.928;2024-01-30T08:44:28;17.95;;;14.68;;
14171;SDS011;7165;52.388;4.928;2024-01-30T08:46:55;15.18;;;13.73;;
14171;SDS011;7165;52.388;4.928;2024-01-30T08:49:22;15.00;;;13.45;;
14171;SDS011;7165;52.388;4.928;2024-01-30T08:51:48;16.05;;;13.18;;
14171;SDS011;7165;52.388;4.928;2024-01-30T08:54:16;15.90;;;14.40;;
14171;SDS011;7165;52.388;4.928;2024-01-30T08:56:45;14.35;;;12.80;;
14171;SDS011;7165;52.388;4.928;2024-01-30T08:59:11;14.23;;;12.75;;
14171;SDS011;7165;52.388;4.928;2024-01-30T09:01:38;14.95;;;13.50;;
14171;SDS011;7165;52.388;4.928;2024-01-30T09:04:05;16.90;;;13.40;;
14171;SDS011;7165;52.388;4.928;2024-01-30T09:06:32;16.60;;;13.43;;
14171;SDS011;7165;52.388;4.928;2024-01-30T09:08:59;15.40;;;13.80;;
14171;SDS011;7165;52.388;4.928;2024-01-30T09:11:26;16.38;;;14.15;;
14171;SDS011;7165;52.388;4.928;2024-01-30T09:13:54;15.05;;;13.63;;
14171;SDS011;7165;52.388;4.928;2024-01-30T09:16:21;15.75;;;13.38;;
14171;SDS011;7165;52.388;4.928;2024-01-30T09:18:48;16.90;;;13.88;;
14171;SDS011;7165;52.388;4.928;2024-01-30T09:21:14;16.90;;;13.75;;
14171;SDS011;7165;52.388;4.928;2024-01-30T09:23:41;18.42;;;13.23;;
14171;SDS011;7165;52.388;4.928;2024-01-30T09:26:08;18.23;;;15.68;;
14171;SDS011;7165;52.388;4.928;2024-01-30T15:20:31;4.35;;;3.95;;
14171;SDS011;7165;52.388;4.928;2024-01-30T15:25:25;7.38;;;4.72;;
14171;SDS011;7165;52.388;4.928;2024-01-30T15:30:20;8.53;;;5.77;;
14171;SDS011;7165;52.388;4.928;2024-01-30T15:32:49;11.07;;;6.53;;
14171;SDS011;7165;52.388;4.928;2024-01-30T15:37:43;11.30;;;5.75;;
14171;SDS011;7165;52.388;4.928;2024-01-30T15:40:10;10.75;;;5.90;;
14171;SDS011;7165;52.388;4.928;2024-01-30T15:42:37;10.65;;;5.13;;
14171;SDS011;7165;52.388;4.928;2024-01-30T15:45:04;10.33;;;5.20;;
14171;SDS011;7165;52.388;4.928;2024-01-30T15:47:32;14.45;;;5.47;;
14171;SDS011;7165;52.388;4.928;2024-01-30T15:50:00;8.95;;;5.07;;
14171;SDS011;7165;52.388;4.928;2024-01-30T15:52:27;12.18;;;6.18;;
14171;SDS011;7165;52.388;4.928;2024-01-30T15:54:53;8.18;;;4.70;;
14171;SDS011;7165;52.388;4.928;2024-01-30T15:57:20;10.00;;;5.25;;
14171;SDS011;7165;52.388;4.928;2024-01-30T15:59:47;7.05;;;4.32;;
14171;SDS011;7165;52.388;4.928;2024-01-30T16:02:14;6.13;;;4.33;;
14171;SDS011;7165;52.388;4.928;2024-01-30T16:04:41;15.60;;;6.10;;
14171;SDS011;7165;52.388;4.928;2024-01-30T16:07:09;14.67;;;4.63;;
14171;SDS011;7165;52.388;4.928;2024-01-30T16:09:36;9.82;;;4.35;;
14171;SDS011;7165;52.388;4.928;2024-01-30T16:12:03;10.48;;;4.95;;
14171;SDS011;7165;52.388;4.928;2024-01-30T16:14:30;8.20;;;4.00;;
14171;SDS011;7165;52.388;4.928;2024-01-30T16:16:59;17.27;;;5.18;;
14171;SDS011;7165;52.388;4.928;2024-01-30T16:19:25;9.15;;;3.70;;
14171;SDS011;7165;52.388;4.928;2024-01-30T16:21:53;10.70;;;4.40;;
14171;SDS011;7165;52.388;4.928;2024-01-30T16:24:21;17.23;;;5.07;;
14171;SDS011;7165;52.388;4.928;2024-01-30T16:26:48;15.18;;;5.38;;
14171;SDS011;7165;52.388;4.928;2024-01-30T16:29:15;12.68;;;6.13;;
14171;SDS011;7165;52.388;4.928;2024-01-30T16:31:42;19.05;;;6.43;;
14171;SDS011;7165;52.388;4.928;2024-01-30T16:34:08;16.67;;;5.40;;
14171;SDS011;7165;52.388;4.928;2024-01-30T16:36:35;10.90;;;5.37;;
14171;SDS011;7165;52.388;4.928;2024-01-30T16:39:02;15.85;;;5.80;;
14171;SDS011;7165;52.388;4.928;2024-01-30T16:41:30;16.50;;;6.05;;
14171;SDS011;7165;52.388;4.928;2024-01-30T16:43:57;11.60;;;5.33;;
14171;SDS011;7165;52.388;4.928;2024-01-30T16:46:24;13.07;;;5.70;;
14171;SDS011;7165;52.388;4.928;2024-01-30T16:48:51;10.98;;;5.32;;
14171;SDS011;7165;52.388;4.928;2024-01-30T16:51:18;15.50;;;6.38;;
14171;SDS011;7165;52.388;4.928;2024-01-30T16:53:45;15.57;;;6.50;;
14171;SDS011;7165;52.388;4.928;2024-01-30T16:56:12;14.20;;;4.80;;
14171;SDS011;7165;52.388;4.928;2024-01-30T16:58:41;18.00;;;6.60;;
14171;SDS011;7165;52.388;4.928;2024-01-30T17:01:07;20.90;;;6.80;;
14171;SDS011;7165;52.388;4.928;2024-01-30T17:03:34;15.33;;;6.00;;
14171;SDS011;7165;52.388;4.928;2024-01-30T17:06:01;16.90;;;5.87;;
14171;SDS011;7165;52.388;4.928;2024-01-30T17:08:30;19.23;;;5.03;;
14171;SDS011;7165;52.388;4.928;2024-01-30T17:10:57;17.60;;;5.43;;
14171;SDS011;7165;52.388;4.928;2024-01-30T17:13:24;15.53;;;5.53;;
14171;SDS011;7165;52.388;4.928;2024-01-30T17:15:53;20.60;;;5.40;;
14171;SDS011;7165;52.388;4.928;2024-01-30T17:18:19;17.45;;;6.50;;
14171;SDS011;7165;52.388;4.928;2024-01-30T17:20:46;13.97;;;5.80;;
14171;SDS011;7165;52.388;4.928;2024-01-30T17:23:13;18.00;;;6.13;;
14171;SDS011;7165;52.388;4.928;2024-01-30T17:25:40;16.20;;;5.80;;
14171;SDS011;7165;52.388;4.928;2024-01-30T17:28:07;27.40;;;6.70;;
14171;SDS011;7165;52.388;4.928;2024-01-30T17:30:34;14.63;;;5.63;;
14171;SDS011;7165;52.388;4.928;2024-01-30T17:33:03;18.10;;;6.20;;
14171;SDS011;7165;52.388;4.928;2024-01-30T17:35:30;10.77;;;5.17;;
14171;SDS011;7165;52.388;4.928;2024-01-30T17:37:57;16.63;;;6.13;;
14171;SDS011;7165;52.388;4.928;2024-01-30T17:40:24;11.27;;;5.35;;
14171;SDS011;7165;52.388;4.928;2024-01-30T17:42:51;12.85;;;5.78;;
14171;SDS011;7165;52.388;4.928;2024-01-30T17:45:18;15.10;;;5.40;;
14171;SDS011;7165;52.388;4.928;2024-01-30T17:47:45;10.35;;;5.40;;
14171;SDS011;7165;52.388;4.928;2024-01-30T17:50:13;15.30;;;5.50;;
14171;SDS011;7165;52.388;4.928;2024-01-30T17:52:40;16.17;;;6.13;;
14171;SDS011;7165;52.388;4.928;2024-01-30T17:55:07;23.20;;;6.77;;
14171;SDS011;7165;52.388;4.928;2024-01-30T17:57:34;16.98;;;6.97;;
14171;SDS011;7165;52.388;4.928;2024-01-30T18:00:01;15.30;;;6.68;;
14171;SDS011;7165;52.388;4.928;2024-01-30T18:02:30;20.50;;;6.25;;
14171;SDS011;7165;52.388;4.928;2024-01-30T18:04:57;17.70;;;7.47;;
14171;SDS011;7165;52.388;4.928;2024-01-30T18:07:25;11.63;;;6.83;;
14171;SDS011;7165;52.388;4.928;2024-01-30T18:09:52;21.07;;;6.23;;
14171;SDS011;7165;52.388;4.928;2024-01-30T18:12:19;19.53;;;7.50;;
14171;SDS011;7165;52.388;4.928;2024-01-30T18:14:46;15.20;;;6.82;;
14171;SDS011;7165;52.388;4.928;2024-01-30T18:17:13;12.68;;;5.63;;
14171;SDS011;7165;52.388;4.928;2024-01-30T18:19:40;17.38;;;6.07;;
14171;SDS011;7165;52.388;4.928;2024-01-30T18:22:07;14.15;;;6.40;;
14171;SDS011;7165;52.388;4.928;2024-01-30T18:24:35;19.40;;;5.67;;
14171;SDS011;7165;52.388;4.928;2024-01-30T18:27:03;14.18;;;6.10;;
14171;SDS011;7165;52.388;4.928;2024-01-30T18:29:30;15.90;;;6.35;;
14171;SDS011;7165;52.388;4.928;2024-01-30T18:31:57;16.08;;;5.47;;
14171;SDS011;7165;52.388;4.928;2024-01-30T18:34:25;13.90;;;7.43;;
14171;SDS011;7165;52.388;4.928;2024-01-30T18:36:52;12.02;;;7.05;;
14171;SDS011;7165;52.388;4.928;2024-01-30T18:39:19;13.43;;;6.85;;
14171;SDS011;7165;52.388;4.928;2024-01-30T18:41:47;14.75;;;7.20;;
14171;SDS011;7165;52.388;4.928;2024-01-30T18:44:14;21.75;;;8.75;;
14171;SDS011;7165;52.388;4.928;2024-01-30T18:46:40;15.32;;;6.72;;
14171;SDS011;7165;52.388;4.928;2024-01-30T18:49:07;11.68;;;5.75;;
14171;SDS011;7165;52.388;4.928;2024-01-30T18:51:34;13.03;;;5.57;;
14171;SDS011;7165;52.388;4.928;2024-01-30T18:54:01;13.77;;;5.55;;
14171;SDS011;7165;52.388;4.928;2024-01-30T18:56:28;12.77;;;4.80;;
14171;SDS011;7165;52.388;4.928;2024-01-30T18:58:56;13.77;;;5.30;;
14171;SDS011;7165;52.388;4.928;2024-01-30T19:01:23;10.73;;;4.33;;
14171;SDS011;7165;52.388;4.928;2024-01-30T19:03:50;9.07;;;5.05;;
14171;SDS011;7165;52.388;4.928;2024-01-30T19:06:17;12.87;;;5.30;;
14171;SDS011;7165;52.388;4.928;2024-01-30T19:08:44;7.60;;;4.30;;
14171;SDS011;7165;52.388;4.928;2024-01-30T19:11:16;7.47;;;4.40;;
14171;SDS011;7165;52.388;4.928;2024-01-30T19:13:44;10.40;;;5.07;;
14171;SDS011;7165;52.388;4.928;2024-01-30T19:16:12;10.93;;;5.37;;
14171;SDS011;7165;52.388;4.928;2024-01-30T19:18:39;12.47;;;5.30;;
14171;SDS011;7165;52.388;4.928;2024-01-30T19:21:06;12.30;;;5.40;;
14171;SDS011;7165;52.388;4.928;2024-01-30T19:23:33;9.20;;;4.30;;
14171;SDS011;7165;52.388;4.928;2024-01-30T19:26:00;12.30;;;4.80;;
14171;SDS011;7165;52.388;4.928;2024-01-30T19:28:27;11.73;;;4.87;;
14171;SDS011;7165;52.388;4.928;2024-01-30T19:30:53;8.57;;;5.10;;
14171;SDS011;7165;52.388;4.928;2024-01-30T19:33:22;12.40;;;6.57;;
14171;SDS011;7165;52.388;4.928;2024-01-30T20:00:18;8.80;;;5.80;;
14171;SDS011;7165;52.388;4.928;2024-01-30T20:02:46;9.77;;;4.53;;
14171;SDS011;7165;52.388;4.928;2024-01-30T20:05:13;8.70;;;5.30;;
14171;SDS011;7165;52.388;4.928;2024-01-30T20:07:42;12.00;;;7.17;;
14171;SDS011;7165;52.388;4.928;2024-01-30T20:10:09;8.00;;;6.33;;
14171;SDS011;7165;52.388;4.928;2024-01-30T20:12:37;11.17;;;4.77;;
14171;SDS011;7165;52.388;4.928;2024-01-30T20:15:07;7.97;;;4.38;;
14171;SDS011;7165;52.388;4.928;2024-01-30T20:17:36;9.33;;;5.20;;
14171;SDS011;7165;52.388;4.928;2024-01-30T20:20:04;8.63;;;4.97;;
14171;SDS011;7165;52.388;4.928;2024-01-30T20:22:30;9.87;;;6.00;;
14171;SDS011;7165;52.388;4.928;2024-01-30T20:24:59;4.23;;;3.40;;
14171;SDS011;7165;52.388;4.928;2024-01-30T20:27:26;4.73;;;4.30;;
14171;SDS011;7165;52.388;4.928;2024-01-30T20:29:53;4.90;;;4.30;;
14171;SDS011;7165;52.388;4.928;2024-01-30T20:32:21;6.90;;;4.20;;
14171;SDS011;7165;52.388;4.928;2024-01-30T20:34:48;5.53;;;5.00;;
14171;SDS011;7165;52.388;4.928;2024-01-30T20:37:17;8.20;;;7.60;;
14171;SDS011;7165;52.388;4.928;2024-01-30T20:39:44;10.25;;;9.45;;
14171;SDS011;7165;52.388;4.928;2024-01-30T20:42:12;14.67;;;13.10;;
14171;SDS011;7165;52.388;4.928;2024-01-30T20:44:39;10.53;;;9.60;;
14171;SDS011;7165;52.388;4.928;2024-01-30T20:47:06;6.60;;;4.60;;
14171;SDS011;7165;52.388;4.928;2024-01-30T20:49:34;5.47;;;2.70;;
14171;SDS011;7165;52.388;4.928;2024-01-30T20:52:02;3.93;;;3.20;;
14171;SDS011;7165;52.388;4.928;2024-01-30T20:54:28;5.17;;;2.50;;
14171;SDS011;7165;52.388;4.928;2024-01-30T20:56:56;5.00;;;2.93;;
14171;SDS011;7165;52.388;4.928;2024-01-30T20:59:24;3.85;;;3.00;;
14171;SDS011;7165;52.388;4.928;2024-01-30T21:01:51;6.50;;;4.05;;
14171;SDS011;7165;52.388;4.928;2024-01-30T21:04:18;8.53;;;4.80;;
14171;SDS011;7165;52.388;4.928;2024-01-30T21:06:45;8.57;;;7.73;;
14171;SDS011;7165;52.388;4.928;2024-01-30T21:09:12;6.53;;;4.50;;
14171;SDS011;7165;52.388;4.928;2024-01-30T21:11:38;9.47;;;8.57;;
14171;SDS011;7165;52.388;4.928;2024-01-30T21:14:05;11.47;;;10.30;;
14171;SDS011;7165;52.388;4.928;2024-01-30T21:16:33;11.60;;;10.30;;
14171;SDS011;7165;52.388;4.928;2024-01-30T21:19:01;12.43;;;11.17;;
14171;SDS011;7165;52.388;4.928;2024-01-30T21:21:28;12.97;;;11.67;;
14171;SDS011;7165;52.388;4.928;2024-01-30T21:23:55;17.50;;;12.83;;
14171;SDS011;7165;52.388;4.928;2024-01-30T21:26:21;12.13;;;10.50;;
14171;SDS011;7165;52.388;4.928;2024-01-30T21:28:48;9.27;;;8.23;;
14171;SDS011;7165;52.388;4.928;2024-01-30T21:31:16;10.97;;;9.77;;
14171;SDS011;7165;52.388;4.928;2024-01-30T21:33:44;11.83;;;8.80;;
14171;SDS011;7165;52.388;4.928;2024-01-30T21:36:11;7.83;;;7.23;;
14171;SDS011;7165;52.388;4.928;2024-01-30T21:38:49;7.83;;;6.60;;
14171;SDS011;7165;52.388;4.928;2024-01-30T21:41:16;9.40;;;7.30;;
14171;SDS011;7165;52.388;4.928;2024-01-30T21:43:43;10.47;;;9.37;;
14171;SDS011;7165;52.388;4.928;2024-01-30T21:46:10;9.57;;;8.67;;
14171;SDS011;7165;52.388;4.928;2024-01-30T21:48:37;12.07;;;10.87;;
14171;SDS011;7165;52.388;4.928;2024-01-30T21:51:05;12.77;;;11.43;;
14171;SDS011;7165;52.388;4.928;2024-01-30T21:53:32;15.30;;;14.00;;
14171;SDS011;7165;52.388;4.928;2024-01-30T21:55:59;14.17;;;12.90;;
14171;SDS011;7165;52.388;4.928;2024-01-30T21:58:26;14.90;;;10.70;;
14171;SDS011;7165;52.388;4.928;2024-01-30T22:00:52;13.30;;;12.10;;
14171;SDS011;7165;52.388;4.928;2024-01-30T22:03:19;14.47;;;13.17;;
14171;SDS011;7165;52.388;4.928;2024-01-30T22:05:46;17.23;;;15.67;;
14171;SDS011;7165;52.388;4.928;2024-01-30T22:08:14;13.80;;;12.60;;
14171;SDS011;7165;52.388;4.928;2024-01-30T22:10:41;11.03;;;9.90;;
14171;SDS011;7165;52.388;4.928;2024-01-30T22:13:09;14.10;;;12.67;;
14171;SDS011;7165;52.388;4.928;2024-01-30T22:15:35;15.23;;;13.43;;
14171;SDS011;7165;52.388;4.928;2024-01-30T22:18:03;14.73;;;13.63;;
14171;SDS011;7165;52.388;4.928;2024-01-30T22:20:30;16.50;;;13.85;;
14171;SDS011;7165;52.388;4.928;2024-01-30T22:22:58;14.10;;;13.00;;
14171;SDS011;7165;52.388;4.928;2024-01-30T22:25:26;13.30;;;12.10;;
14171;SDS011;7165;52.388;4.928;2024-01-30T22:27:53;12.03;;;9.93;;
14171;SDS011;7165;52.388;4.928;2024-01-30T22:30:20;10.93;;;7.00;;
14171;SDS011;7165;52.388;4.928;2024-01-30T22:32:47;5.57;;;3.20;;
14171;SDS011;7165;52.388;4.928;2024-01-30T22:35:14;3.20;;;2.80;;
14171;SDS011;7165;52.388;4.928;2024-01-30T22:37:40;5.90;;;5.20;;
14171;SDS011;7165;52.388;4.928;2024-01-30T22:40:07;3.90;;;3.60;;
14171;SDS011;7165;52.388;4.928;2024-01-30T22:42:36;5.53;;;3.70;;
14171;SDS011;7165;52.388;4.928;2024-01-30T22:45:04;7.87;;;4.83;;
14171;SDS011;7165;52.388;4.928;2024-01-30T22:47:31;8.67;;;7.20;;
14171;SDS011;7165;52.388;4.928;2024-01-30T22:49:58;12.00;;;10.83;;
14171;SDS011;7165;52.388;4.928;2024-01-30T22:52:25;15.10;;;13.07;;
14171;SDS011;7165;52.388;4.928;2024-01-30T22:54:52;15.23;;;13.70;;
14171;SDS011;7165;52.388;4.928;2024-01-30T22:57:19;19.77;;;15.57;;
14171;SDS011;7165;52.388;4.928;2024-01-30T22:59:47;15.80;;;14.40;;
14171;SDS011;7165;52.388;4.928;2024-01-30T23:02:14;12.60;;;11.03;;
14171;SDS011;7165;52.388;4.928;2024-01-30T23:04:41;10.77;;;8.00;;
14171;SDS011;7165;52.388;4.928;2024-01-30T23:07:07;6.60;;;4.30;;
14171;SDS011;7165;52.388;4.928;2024-01-30T23:09:34;8.07;;;3.70;;
14171;SDS011;7165;52.388;4.928;2024-01-30T23:12:02;7.07;;;3.63;;
14171;SDS011;7165;52.388;4.928;2024-01-30T23:14:29;5.00;;;3.93;;
14171;SDS011;7165;52.388;4.928;2024-01-30T23:16:57;5.47;;;4.20;;
14171;SDS011;7165;52.388;4.928;2024-01-30T23:19:24;7.33;;;3.80;;
14171;SDS011;7165;52.388;4.928;2024-01-30T23:21:57;6.43;;;3.90;;
14171;SDS011;7165;52.388;4.928;2024-01-30T23:24:23;7.10;;;4.10;;
14171;SDS011;7165;52.388;4.928;2024-01-30T23:26:50;14.80;;;5.67;;
14171;SDS011;7165;52.388;4.928;2024-01-30T23:29:17;9.73;;;4.20;;
14171;SDS011;7165;52.388;4.928;2024-01-30T23:31:44;8.10;;;6.10;;
14171;SDS011;7165;52.388;4.928;2024-01-30T23:34:12;12.23;;;4.93;;
14171;SDS011;7165;52.388;4.928;2024-01-30T23:36:39;7.73;;;4.87;;
14171;SDS011;7165;52.388;4.928;2024-01-30T23:39:08;5.57;;;4.80;;
14171;SDS011;7165;52.388;4.928;2024-01-30T23:41:36;9.67;;;4.67;;
14171;SDS011;7165;52.388;4.928;2024-01-30T23:44:03;5.43;;;4.17;;
14171;SDS011;7165;52.388;4.928;2024-01-30T23:46:30;7.47;;;4.80;;
14171;SDS011;7165;52.388;4.928;2024-01-30T23:48:58;8.90;;;5.43;;
